Time;durP1;ratioP1;P1;durP2;ratioP2;P2;SDS_P1;SDS_P2;PMS_P1;PMS_P2;Temp;Humidity;BMP_temperature;BMP_pressure;BME280_temperature;BME280_humidity;BME280_pressure;Samples;Min_cycle;Max_cycle;Signal;HPM_P1;HPM_P2
2023/05/28 00:01:33;;;;;;;32.17;8.07;;;;;;;;;;5056759;27;88113;-75
2023/05/28 00:03:59;;;;;;;36.58;8.88;;;;;;;;;;5069053;27;87911;-75
2023/05/28 00:06:25;;;;;;;26.20;7.82;;;;;;;;;;5055030;27;89183;-76
2023/05/28 00:08:52;;;;;;;31.58;8.98;;;;;;;;;;5071418;27;88195;-75
2023/05/28 00:11:18;;;;;;;28.33;7.95;;;;;;;;;;5054913;27;89202;-75
2023/05/28 00:13:44;;;;;;;34.45;8.30;;;;;;;;;;5063898;27;89253;-76
2023/05/28 00:16:12;;;;;;;31.73;7.97;;;;;;;;;;5058084;27;89177;-75
2023/05/28 00:18:39;;;;;;;31.50;8.57;;;;;;;;;;5055307;27;88791;-75
2023/05/28 00:21:06;;;;;;;26.67;8.30;;;;;;;;;;5062328;27;89449;-75
2023/05/28 00:23:32;;;;;;;38.92;8.57;;;;;;;;;;5061653;27;89119;-75
2023/05/28 00:25:58;;;;;;;39.90;8.45;;;;;;;;;;5073040;27;88840;-76
2023/05/28 00:28:25;;;;;;;26.02;8.73;;;;;;;;;;5055871;27;88048;-75
2023/05/28 00:30:51;;;;;;;27.30;7.85;;;;;;;;;;5038444;27;88172;-75
2023/05/28 00:33:17;;;;;;;34.63;8.77;;;;;;;;;;5041144;27;88872;-75
2023/05/28 00:35:44;;;;;;;25.85;8.02;;;;;;;;;;5056187;27;88883;-76
2023/05/28 00:38:10;;;;;;;28.27;7.45;;;;;;;;;;5056484;27;88218;-74
2023/05/28 00:40:37;;;;;;;27.25;8.18;;;;;;;;;;5039623;28;89570;-76
2023/05/28 00:43:03;;;;;;;32.30;8.48;;;;;;;;;;5039770;27;88116;-76
2023/05/28 00:45:30;;;;;;;28.88;8.55;;;;;;;;;;5054995;27;88877;-75
2023/05/28 00:47:57;;;;;;;21.23;7.38;;;;;;;;;;5062987;27;88954;-76
2023/05/28 00:50:25;;;;;;;31.85;8.68;;;;;;;;;;5059574;27;88812;-75
2023/05/28 00:52:52;;;;;;;34.35;8.38;;;;;;;;;;5060682;27;88785;-74
2023/05/28 00:55:19;;;;;;;23.90;8.02;;;;;;;;;;5060045;27;88382;-75
2023/05/28 00:57:47;;;;;;;34.97;8.20;;;;;;;;;;5058717;27;88690;-74
2023/05/28 01:00:13;;;;;;;27.00;8.63;;;;;;;;;;5057162;27;92878;-75
2023/05/28 01:02:40;;;;;;;27.70;7.85;;;;;;;;;;5054808;27;88285;-74
2023/05/28 01:05:06;;;;;;;28.63;8.10;;;;;;;;;;5064743;27;89093;-74
2023/05/28 01:07:33;;;;;;;27.83;8.23;;;;;;;;;;5042019;27;89029;-75
2023/05/28 01:10:00;;;;;;;31.00;8.35;;;;;;;;;;5074585;27;88141;-74
2023/05/28 01:12:26;;;;;;;29.52;9.27;;;;;;;;;;5073938;27;89642;-75
2023/05/28 01:14:53;;;;;;;28.27;8.60;;;;;;;;;;5075553;27;88226;-76
2023/05/28 01:17:20;;;;;;;24.95;8.07;;;;;;;;;;5069063;27;88887;-76
2023/05/28 01:19:47;;;;;;;26.55;8.77;;;;;;;;;;5061275;27;89037;-74
2023/05/28 01:22:16;;;;;;;29.48;8.27;;;;;;;;;;5047609;27;88793;-76
2023/05/28 01:24:44;;;;;;;28.30;8.50;;;;;;;;;;5072939;27;88845;-75
2023/05/28 01:27:12;;;;;;;24.67;7.72;;;;;;;;;;5064244;27;92215;-75
2023/05/28 01:29:38;;;;;;;26.48;8.02;;;;;;;;;;5067812;27;88502;-76
2023/05/28 01:32:05;;;;;;;30.98;8.27;;;;;;;;;;5048108;27;89764;-76
2023/05/28 01:34:31;;;;;;;24.52;8.38;;;;;;;;;;5058460;27;88254;-75
2023/05/28 01:37:00;;;;;;;28.60;8.60;;;;;;;;;;5059350;27;88797;-74
2023/05/28 01:39:29;;;;;;;20.33;7.32;;;;;;;;;;5041360;27;89077;-74
2023/05/28 01:41:56;;;;;;;25.27;8.25;;;;;;;;;;5054003;27;88440;-74
2023/05/28 01:44:23;;;;;;;24.08;7.50;;;;;;;;;;5058821;27;87999;-74
2023/05/28 01:46:52;;;;;;;23.33;7.57;;;;;;;;;;5058314;27;88198;-75
2023/05/28 01:49:19;;;;;;;30.58;7.60;;;;;;;;;;5057690;27;88760;-74
2023/05/28 01:51:46;;;;;;;22.85;8.40;;;;;;;;;;5061549;27;89798;-75
2023/05/28 01:54:12;;;;;;;27.27;8.13;;;;;;;;;;5059143;27;88019;-75
2023/05/28 01:56:39;;;;;;;27.17;8.32;;;;;;;;;;5058790;27;88787;-75
2023/05/28 01:59:05;;;;;;;27.85;8.10;;;;;;;;;;5058901;27;89048;-74
2023/05/28 02:01:36;;;;;;;25.60;8.63;;;;;;;;;;5071092;27;90752;-76
2023/05/28 02:04:03;;;;;;;25.08;8.27;;;;;;;;;;5058144;27;88777;-75
2023/05/28 02:06:31;;;;;;;31.10;8.20;;;;;;;;;;5059838;27;88083;-74
2023/05/28 02:08:57;;;;;;;30.05;8.52;;;;;;;;;;5063807;27;88031;-74
2023/05/28 02:11:25;;;;;;;26.15;8.65;;;;;;;;;;5074888;27;89115;-75
2023/05/28 02:13:52;;;;;;;22.23;8.13;;;;;;;;;;5079447;27;90068;-74
2023/05/28 02:16:18;;;;;;;28.85;8.73;;;;;;;;;;5074708;27;88227;-75
2023/05/28 02:18:45;;;;;;;31.02;8.45;;;;;;;;;;5059487;27;89041;-75
2023/05/28 02:21:12;;;;;;;24.55;8.55;;;;;;;;;;5060574;27;88043;-75
2023/05/28 02:23:46;;;;;;;30.23;9.27;;;;;;;;;;5064966;27;89848;-75
2023/05/28 02:26:12;;;;;;;24.95;8.57;;;;;;;;;;5068535;27;89465;-76
2023/05/28 02:28:39;;;;;;;26.02;8.15;;;;;;;;;;5057211;27;88110;-76
2023/05/28 02:31:06;;;;;;;33.25;8.43;;;;;;;;;;5068534;27;89189;-75
2023/05/28 02:33:33;;;;;;;23.52;8.10;;;;;;;;;;5042417;27;89536;-73
2023/05/28 02:35:59;;;;;;;26.33;9.05;;;;;;;;;;5049148;27;87984;-74
2023/05/28 02:38:25;;;;;;;26.92;8.63;;;;;;;;;;5056829;27;88766;-73
2023/05/28 02:40:52;;;;;;;26.95;8.57;;;;;;;;;;5058609;27;88500;-74
2023/05/28 02:43:18;;;;;;;33.55;9.05;;;;;;;;;;5058692;27;92601;-74
2023/05/28 02:45:45;;;;;;;28.15;8.45;;;;;;;;;;5058048;27;89060;-73
2023/05/28 02:48:11;;;;;;;24.70;8.48;;;;;;;;;;5057878;27;88172;-74
2023/05/28 02:50:37;;;;;;;27.83;8.65;;;;;;;;;;5058106;27;88038;-73
2023/05/28 02:53:04;;;;;;;23.90;8.43;;;;;;;;;;5057748;27;89189;-74
2023/05/28 02:55:30;;;;;;;25.25;8.55;;;;;;;;;;5057997;27;88042;-74
2023/05/28 02:57:57;;;;;;;26.88;8.43;;;;;;;;;;5061059;27;88152;-74
2023/05/28 03:00:23;;;;;;;25.63;8.52;;;;;;;;;;5057279;27;90068;-74
2023/05/28 03:02:50;;;;;;;31.60;8.93;;;;;;;;;;5059019;27;89015;-76
2023/05/28 03:05:16;;;;;;;30.88;9.68;;;;;;;;;;5073676;27;88980;-76
2023/05/28 03:07:43;;;;;;;31.73;9.27;;;;;;;;;;5070499;27;89520;-76
2023/05/28 03:10:09;;;;;;;26.63;9.85;;;;;;;;;;5061545;27;88795;-76
2023/05/28 03:12:36;;;;;;;29.65;8.60;;;;;;;;;;5066467;27;89403;-75
2023/05/28 03:15:03;;;;;;;31.20;8.82;;;;;;;;;;5073872;27;88057;-75
2023/05/28 03:17:30;;;;;;;33.40;9.57;;;;;;;;;;5062560;27;88954;-74
2023/05/28 03:19:56;;;;;;;25.83;8.88;;;;;;;;;;5060158;27;88822;-73
2023/05/28 03:22:23;;;;;;;25.08;8.80;;;;;;;;;;5057069;27;88058;-72
2023/05/28 03:24:49;;;;;;;31.23;9.05;;;;;;;;;;5071381;27;88954;-73
2023/05/28 03:27:16;;;;;;;39.05;8.85;;;;;;;;;;5060004;27;89024;-73
2023/05/28 03:29:42;;;;;;;27.83;8.63;;;;;;;;;;5056585;27;89528;-72
2023/05/28 03:32:08;;;;;;;38.20;9.38;;;;;;;;;;5055315;27;89533;-72
2023/05/28 03:34:35;;;;;;;31.70;7.88;;;;;;;;;;5065134;27;88623;-72
2023/05/28 03:37:02;;;;;;;30.10;8.73;;;;;;;;;;5064142;27;89834;-72
2023/05/28 03:39:29;;;;;;;31.92;9.52;;;;;;;;;;5078134;27;89164;-71
2023/05/28 03:41:55;;;;;;;25.63;8.73;;;;;;;;;;5072932;27;88021;-72
2023/05/28 03:44:21;;;;;;;24.23;9.35;;;;;;;;;;5075759;27;88149;-72
2023/05/28 03:46:48;;;;;;;33.50;9.18;;;;;;;;;;5064220;27;88288;-71
2023/05/28 03:49:15;;;;;;;24.08;8.95;;;;;;;;;;5056735;27;89329;-71
2023/05/28 03:51:41;;;;;;;28.45;9.00;;;;;;;;;;5068177;27;89520;-72
2023/05/28 03:54:07;;;;;;;25.77;8.35;;;;;;;;;;5067761;27;88051;-71
2023/05/28 03:56:34;;;;;;;36.15;10.32;;;;;;;;;;5073103;27;90866;-72
2023/05/28 03:59:01;;;;;;;25.08;8.50;;;;;;;;;;5039586;27;89427;-72
2023/05/28 04:01:27;;;;;;;31.15;8.75;;;;;;;;;;5064101;27;90242;-73
2023/05/28 04:03:53;;;;;;;34.83;9.52;;;;;;;;;;5062072;27;88718;-72
2023/05/28 04:06:20;;;;;;;34.95;10.10;;;;;;;;;;5057671;27;87991;-73
2023/05/28 04:08:47;;;;;;;41.28;10.07;;;;;;;;;;5069320;27;90806;-71
2023/05/28 04:11:13;;;;;;;34.30;10.07;;;;;;;;;;5074539;27;89223;-71
2023/05/28 04:13:40;;;;;;;30.33;8.90;;;;;;;;;;5073632;27;91134;-71
2023/05/28 04:16:07;;;;;;;27.75;9.23;;;;;;;;;;5077484;27;88941;-71
2023/05/28 04:18:33;;;;;;;32.75;10.25;;;;;;;;;;5065259;27;89014;-71
2023/05/28 04:21:00;;;;;;;35.35;10.55;;;;;;;;;;5073091;27;89069;-71
2023/05/28 04:23:27;;;;;;;31.20;9.50;;;;;;;;;;5068321;27;89716;-72
2023/05/28 04:25:54;;;;;;;29.10;9.50;;;;;;;;;;5064457;27;90059;-71
2023/05/28 04:28:24;;;;;;;29.02;9.13;;;;;;;;;;5064106;27;88860;-71
2023/05/28 04:30:51;;;;;;;28.20;9.93;;;;;;;;;;5043834;27;93635;-72
2023/05/28 04:33:19;;;;;;;32.90;9.80;;;;;;;;;;5068464;27;91693;-72
2023/05/28 04:35:45;;;;;;;24.98;9.55;;;;;;;;;;5060898;27;92539;-72
2023/05/28 04:38:11;;;;;;;26.20;9.38;;;;;;;;;;5040496;27;93449;-75
2023/05/28 04:40:39;;;;;;;23.77;9.38;;;;;;;;;;4998801;28;94859;-74
2023/05/28 04:43:06;;;;;;;29.92;9.30;;;;;;;;;;5032950;27;95534;-74
2023/05/28 04:45:33;;;;;;;28.70;9.60;;;;;;;;;;5031128;27;93483;-74
2023/05/28 04:48:01;;;;;;;30.40;9.10;;;;;;;;;;5031390;28;93248;-74
2023/05/28 04:50:27;;;;;;;31.35;10.15;;;;;;;;;;5028359;27;93660;-74
2023/05/28 04:52:54;;;;;;;32.92;8.48;;;;;;;;;;5016999;27;92510;-75
2023/05/28 04:55:22;;;;;;;22.63;8.35;;;;;;;;;;5015482;28;94375;-75
2023/05/28 04:57:48;;;;;;;35.75;10.13;;;;;;;;;;5015997;28;93219;-76
2023/05/28 05:00:15;;;;;;;23.83;9.48;;;;;;;;;;5014478;28;92448;-75
2023/05/28 05:02:41;;;;;;;35.35;9.68;;;;;;;;;;5016458;28;93501;-75
2023/05/28 05:05:08;;;;;;;29.35;9.65;;;;;;;;;;5012853;28;96019;-75
2023/05/28 05:07:36;;;;;;;27.98;9.30;;;;;;;;;;5028637;28;92574;-75
2023/05/28 05:10:03;;;;;;;28.30;8.93;;;;;;;;;;5020596;27;93452;-73
2023/05/28 05:12:29;;;;;;;29.92;9.82;;;;;;;;;;5024497;28;92519;-74
2023/05/28 05:14:56;;;;;;;42.03;11.20;;;;;;;;;;5033196;28;94906;-74
2023/05/28 05:17:22;;;;;;;24.00;9.23;;;;;;;;;;5026095;27;93426;-74
2023/05/28 05:19:48;;;;;;;25.00;9.95;;;;;;;;;;5016440;28;92507;-74
2023/05/28 05:22:15;;;;;;;22.85;9.40;;;;;;;;;;5016543;28;93757;-75
2023/05/28 05:24:41;;;;;;;30.45;9.82;;;;;;;;;;5019130;28;94469;-75
2023/05/28 05:27:08;;;;;;;25.30;10.10;;;;;;;;;;5013764;28;93138;-75
2023/05/28 05:29:34;;;;;;;31.42;9.57;;;;;;;;;;5030702;28;94962;-75
2023/05/28 05:32:01;;;;;;;34.72;9.25;;;;;;;;;;5019678;28;92489;-73
2023/05/28 05:34:27;;;;;;;25.17;9.88;;;;;;;;;;5010344;28;93649;-73
2023/05/28 05:36:53;;;;;;;24.38;8.55;;;;;;;;;;5025563;27;92410;-73
2023/05/28 05:39:20;;;;;;;25.40;9.45;;;;;;;;;;5048684;27;94885;-75
2023/05/28 05:41:46;;;;;;;27.63;9.23;;;;;;;;;;5043411;27;93241;-76
2023/05/28 05:44:12;;;;;;;20.50;9.50;;;;;;;;;;5067404;27;98070;-75
2023/05/28 05:46:39;;;;;;;36.05;9.57;;;;;;;;;;5061576;27;92336;-76
2023/05/28 05:49:06;;;;;;;24.83;8.35;;;;;;;;;;5071898;27;92657;-75
2023/05/28 05:51:32;;;;;;;28.45;9.27;;;;;;;;;;5070994;27;92480;-74
2023/05/28 05:53:59;;;;;;;21.25;8.65;;;;;;;;;;5072348;27;97007;-74
2023/05/28 05:56:25;;;;;;;28.23;9.30;;;;;;;;;;5055833;27;93476;-74
2023/05/28 05:58:52;;;;;;;27.42;9.50;;;;;;;;;;5038888;27;92461;-76
2023/05/28 06:01:20;;;;;;;26.30;9.10;;;;;;;;;;5070253;27;92542;-76
2023/05/28 06:03:46;;;;;;;26.58;9.10;;;;;;;;;;5054473;27;94448;-75
2023/05/28 06:06:13;;;;;;;28.98;8.95;;;;;;;;;;5066542;27;92709;-76
2023/05/28 06:08:39;;;;;;;29.17;8.75;;;;;;;;;;5059950;27;93627;-75
2023/05/28 06:11:06;;;;;;;27.42;9.15;;;;;;;;;;5071963;27;92949;-76
2023/05/28 06:13:33;;;;;;;22.00;9.43;;;;;;;;;;5071646;27;92764;-76
2023/05/28 06:16:00;;;;;;;32.72;9.85;;;;;;;;;;5052037;27;93597;-76
2023/05/28 06:18:26;;;;;;;33.70;9.13;;;;;;;;;;5043577;27;94957;-74
2023/05/28 06:20:53;;;;;;;27.33;9.65;;;;;;;;;;5057149;27;96188;-75
2023/05/28 06:23:19;;;;;;;26.35;8.40;;;;;;;;;;5053836;27;93304;-74
2023/05/28 06:25:45;;;;;;;27.02;9.57;;;;;;;;;;5052133;27;92475;-74
2023/05/28 06:28:12;;;;;;;26.73;9.18;;;;;;;;;;5055087;27;93326;-75
2023/05/28 06:30:39;;;;;;;31.95;9.23;;;;;;;;;;5055101;27;93466;-76
2023/05/28 06:33:08;;;;;;;21.90;8.65;;;;;;;;;;5040644;27;93117;-74
2023/05/28 06:35:34;;;;;;;25.55;9.95;;;;;;;;;;5067541;27;91697;-74
2023/05/28 06:38:01;;;;;;;28.27;9.25;;;;;;;;;;5069512;27;92560;-74
2023/05/28 06:40:27;;;;;;;27.77;8.95;;;;;;;;;;5059381;27;94481;-73
2023/05/28 06:42:54;;;;;;;28.63;8.75;;;;;;;;;;5050539;27;96187;-74
2023/05/28 06:45:23;;;;;;;26.98;8.77;;;;;;;;;;5049511;27;93145;-75
2023/05/28 06:47:49;;;;;;;21.98;8.63;;;;;;;;;;5038469;27;93280;-76
2023/05/28 06:50:16;;;;;;;32.17;9.15;;;;;;;;;;5036809;27;93376;-75
2023/05/28 06:52:43;;;;;;;34.35;9.80;;;;;;;;;;5055609;27;92450;-75
2023/05/28 06:55:09;;;;;;;24.67;8.30;;;;;;;;;;5039094;27;93377;-75
2023/05/28 06:57:36;;;;;;;25.83;8.63;;;;;;;;;;5053850;27;92434;-76
2023/05/28 07:00:10;;;;;;;21.55;8.10;;;;;;;;;;5061487;27;93140;-75
2023/05/28 07:02:36;;;;;;;31.90;9.38;;;;;;;;;;5051782;27;93445;-75
2023/05/28 07:05:04;;;;;;;24.45;9.45;;;;;;;;;;5046913;27;92586;-75
2023/05/28 07:07:31;;;;;;;30.05;8.55;;;;;;;;;;5052380;27;95077;-75
2023/05/28 07:10:00;;;;;;;22.45;8.68;;;;;;;;;;5057299;27;93673;-75
2023/05/28 07:12:26;;;;;;;23.35;8.23;;;;;;;;;;5056144;27;92786;-75
2023/05/28 07:14:53;;;;;;;27.50;8.63;;;;;;;;;;5053414;27;93176;-74
2023/05/28 07:17:20;;;;;;;23.58;8.02;;;;;;;;;;5068251;27;93569;-74
2023/05/28 07:19:47;;;;;;;23.15;8.23;;;;;;;;;;5074667;27;93505;-74
2023/05/28 07:22:14;;;;;;;30.98;9.73;;;;;;;;;;5067936;27;93283;-74
2023/05/28 07:24:40;;;;;;;21.35;8.65;;;;;;;;;;5056362;27;91889;-73
2023/05/28 07:27:06;;;;;;;23.08;8.73;;;;;;;;;;5054160;27;92724;-74
2023/05/28 07:29:33;;;;;;;25.27;7.97;;;;;;;;;;5054583;27;94461;-75
2023/05/28 07:31:59;;;;;;;28.92;9.32;;;;;;;;;;5037501;27;95174;-74
2023/05/28 07:34:26;;;;;;;25.70;8.40;;;;;;;;;;5052785;27;95783;-74
2023/05/28 07:36:52;;;;;;;22.13;8.38;;;;;;;;;;5066875;27;93409;-74
2023/05/28 07:39:19;;;;;;;24.80;10.00;;;;;;;;;;5059804;27;92436;-74
2023/05/28 07:41:45;;;;;;;27.50;8.45;;;;;;;;;;5053741;27;94348;-75
2023/05/28 07:44:12;;;;;;;25.27;8.57;;;;;;;;;;5059646;27;93633;-75
2023/05/28 07:46:38;;;;;;;26.10;8.27;;;;;;;;;;5056982;27;93321;-75
2023/05/28 07:49:04;;;;;;;25.98;8.70;;;;;;;;;;5056651;27;93658;-75
2023/05/28 07:51:31;;;;;;;26.67;8.52;;;;;;;;;;5046257;27;92950;-74
2023/05/28 07:53:58;;;;;;;22.33;8.27;;;;;;;;;;5051969;27;93191;-74
2023/05/28 07:56:24;;;;;;;19.52;8.05;;;;;;;;;;5030651;27;96913;-73
2023/05/28 07:58:51;;;;;;;28.35;8.77;;;;;;;;;;5047896;27;92473;-75
2023/05/28 08:01:17;;;;;;;19.00;7.72;;;;;;;;;;5056270;27;94115;-74
2023/05/28 08:03:44;;;;;;;27.35;8.73;;;;;;;;;;5044535;27;92473;-74
2023/05/28 08:06:10;;;;;;;30.45;8.48;;;;;;;;;;5046110;27;93143;-75
2023/05/28 08:08:37;;;;;;;25.50;9.00;;;;;;;;;;5042654;27;93376;-75
2023/05/28 08:11:04;;;;;;;17.52;7.43;;;;;;;;;;5051926;27;92461;-74
2023/05/28 08:13:30;;;;;;;30.98;9.40;;;;;;;;;;5055599;27;93293;-74
2023/05/28 08:15:59;;;;;;;28.10;8.68;;;;;;;;;;5056659;27;93544;-74
2023/05/28 08:18:29;;;;;;;23.33;7.45;;;;;;;;;;5046697;27;92538;-74
2023/05/28 08:20:56;;;;;;;27.02;7.53;;;;;;;;;;5056379;27;94932;-75
2023/05/28 08:23:22;;;;;;;21.73;7.10;;;;;;;;;;5059116;27;92686;-74
2023/05/28 08:25:49;;;;;;;34.60;7.45;;;;;;;;;;5050432;27;94644;-73
2023/05/28 08:28:17;;;;;;;25.27;9.00;;;;;;;;;;5035396;27;93505;-74
2023/05/28 08:30:43;;;;;;;22.08;6.82;;;;;;;;;;5053393;27;92520;-74
2023/05/28 08:33:09;;;;;;;18.95;7.57;;;;;;;;;;5050826;27;93150;-74
2023/05/28 08:35:36;;;;;;;23.13;7.30;;;;;;;;;;5056671;27;93274;-74
2023/05/28 08:38:03;;;;;;;24.92;7.35;;;;;;;;;;5051988;27;92273;-74
2023/05/28 08:40:30;;;;;;;24.52;7.50;;;;;;;;;;5038173;27;92845;-75
2023/05/28 08:42:56;;;;;;;24.83;7.18;;;;;;;;;;5067057;27;93729;-74
2023/05/28 08:45:23;;;;;;;23.27;8.10;;;;;;;;;;5049568;27;94878;-74
2023/05/28 08:47:51;;;;;;;21.48;6.68;;;;;;;;;;5052648;27;93117;-74
2023/05/28 08:50:18;;;;;;;19.52;7.00;;;;;;;;;;5037363;27;93224;-74
2023/05/28 08:52:46;;;;;;;20.45;6.32;;;;;;;;;;5064046;27;93212;-73
2023/05/28 08:55:13;;;;;;;20.70;7.10;;;;;;;;;;5054274;27;93711;-74
2023/05/28 08:57:39;;;;;;;19.85;6.60;;;;;;;;;;5051770;27;92497;-74
2023/05/28 09:00:08;;;;;;;22.02;6.82;;;;;;;;;;5051558;27;93287;-73
2023/05/28 09:02:34;;;;;;;22.42;7.05;;;;;;;;;;5043044;27;92648;-74
2023/05/28 09:05:01;;;;;;;20.50;7.07;;;;;;;;;;5059896;27;93964;-74
2023/05/28 09:07:27;;;;;;;17.33;6.90;;;;;;;;;;5038463;27;93452;-74
2023/05/28 09:09:56;;;;;;;21.63;7.03;;;;;;;;;;5051799;27;94870;-74
2023/05/28 09:12:22;;;;;;;22.15;7.57;;;;;;;;;;5067756;27;95619;-74
2023/05/28 09:14:50;;;;;;;21.77;7.15;;;;;;;;;;5057825;27;93403;-74
2023/05/28 09:17:16;;;;;;;20.00;6.95;;;;;;;;;;5061816;27;92507;-74
2023/05/28 09:19:51;;;;;;;27.35;7.43;;;;;;;;;;5055789;27;94041;-73
2023/05/28 09:22:18;;;;;;;23.50;7.22;;;;;;;;;;5049834;27;94507;-73
2023/05/28 09:24:49;;;;;;;33.28;8.35;;;;;;;;;;5048733;27;92505;-73
2023/05/28 09:27:19;;;;;;;26.83;7.15;;;;;;;;;;5062662;27;93050;-74
2023/05/28 09:29:46;;;;;;;20.77;6.72;;;;;;;;;;5061164;27;92817;-74
2023/05/28 09:32:17;;;;;;;24.83;7.25;;;;;;;;;;5036143;27;94761;-74
2023/05/28 09:34:43;;;;;;;17.60;6.70;;;;;;;;;;5053612;27;96553;-73
2023/05/28 09:37:09;;;;;;;21.85;6.63;;;;;;;;;;5068605;27;93058;-74
2023/05/28 09:39:36;;;;;;;22.10;7.35;;;;;;;;;;5055700;27;93526;-74
2023/05/28 09:42:03;;;;;;;19.10;6.88;;;;;;;;;;5055837;27;93508;-74
2023/05/28 09:44:31;;;;;;;20.75;6.93;;;;;;;;;;5057396;27;94137;-73
2023/05/28 09:46:58;;;;;;;16.23;6.35;;;;;;;;;;5071929;27;92996;-74
2023/05/28 09:49:28;;;;;;;19.73;6.40;;;;;;;;;;5076130;27;92939;-75
2023/05/28 09:51:56;;;;;;;19.67;6.07;;;;;;;;;;5077051;27;93064;-73
2023/05/28 09:54:26;;;;;;;22.45;7.10;;;;;;;;;;5073558;27;93368;-73
2023/05/28 09:56:54;;;;;;;23.63;6.07;;;;;;;;;;5073887;27;92545;-73
2023/05/28 09:59:22;;;;;;;21.48;5.90;;;;;;;;;;5054700;27;94881;-73
2023/05/28 10:01:53;;;;;;;19.15;6.30;;;;;;;;;;5057990;27;92737;-73
2023/05/28 10:04:21;;;;;;;22.27;6.05;;;;;;;;;;5053762;27;94096;-74
2023/05/28 10:06:48;;;;;;;19.17;6.00;;;;;;;;;;5054975;27;93184;-73
2023/05/28 10:09:15;;;;;;;18.35;6.13;;;;;;;;;;5052926;27;93356;-73
2023/05/28 10:11:43;;;;;;;20.30;5.88;;;;;;;;;;5060589;27;93263;-73
2023/05/28 10:14:10;;;;;;;19.73;6.60;;;;;;;;;;5068177;27;93846;-73
2023/05/28 10:16:37;;;;;;;26.20;6.97;;;;;;;;;;5060061;27;91807;-73
2023/05/28 10:19:04;;;;;;;18.58;6.05;;;;;;;;;;5066788;27;92510;-74
2023/05/28 10:21:30;;;;;;;19.38;6.25;;;;;;;;;;5072015;27;94484;-76
2023/05/28 10:23:56;;;;;;;18.98;6.03;;;;;;;;;;5055685;27;95577;-74
2023/05/28 10:26:24;;;;;;;25.88;8.15;;;;;;;;;;5063409;27;95593;-74
2023/05/28 10:28:54;;;;;;;19.80;6.50;;;;;;;;;;5073942;27;93717;-74
2023/05/28 10:31:20;;;;;;;;;;;;;;;;;;5078575;27;92505;-71
2023/05/28 10:33:47;;;;;;;17.90;5.82;;;;;;;;;;5039250;27;123969;-74
2023/05/28 10:36:14;;;;;;;17.58;5.75;;;;;;;;;;5065513;27;92621;-74
2023/05/28 10:38:44;;;;;;;17.23;5.53;;;;;;;;;;5075408;27;93119;-74
2023/05/28 10:41:11;;;;;;;19.38;5.93;;;;;;;;;;5067202;27;92745;-74
2023/05/28 10:43:37;;;;;;;16.27;5.60;;;;;;;;;;5055258;27;92640;-75
2023/05/28 10:46:08;;;;;;;23.10;7.05;;;;;;;;;;5061269;27;93230;-74
2023/05/28 10:48:38;;;;;;;21.80;5.95;;;;;;;;;;5053071;27;96287;-75
2023/05/28 10:51:05;;;;;;;17.95;7.25;;;;;;;;;;5054938;27;92716;-74
2023/05/28 10:53:32;;;;;;;14.00;5.15;;;;;;;;;;5060482;27;93107;-74
2023/05/28 10:56:01;;;;;;;17.25;5.72;;;;;;;;;;5072981;27;92467;-74
2023/05/28 10:58:34;;;;;;;21.85;6.68;;;;;;;;;;5075171;27;94761;-75
2023/05/28 11:01:20;;;;;;;18.98;5.82;;;;;;;;;;5054673;27;94557;-73
2023/05/28 11:03:52;;;;;;;18.02;5.55;;;;;;;;;;5030154;27;93350;-74
2023/05/28 11:06:18;;;;;;;20.27;5.68;;;;;;;;;;5054859;27;92347;-73
2023/05/28 11:08:46;;;;;;;17.20;5.38;;;;;;;;;;5032782;28;93688;-74
2023/05/28 11:11:13;;;;;;;19.73;5.20;;;;;;;;;;5034462;27;92461;-73
2023/05/28 11:13:44;;;;;;;20.35;5.70;;;;;;;;;;5038274;27;95041;-73
2023/05/28 11:16:10;;;;;;;13.30;4.63;;;;;;;;;;5059478;27;93744;-75
2023/05/28 11:18:37;;;;;;;26.27;5.85;;;;;;;;;;5055221;27;93152;-73
2023/05/28 11:21:08;;;;;;;20.58;5.57;;;;;;;;;;5035341;27;93566;-74
2023/05/28 11:23:39;;;;;;;19.02;5.05;;;;;;;;;;5053557;27;92647;-74
2023/05/28 11:26:05;;;;;;;;;;;;;;;;;;5071540;27;93337;-74
2023/05/28 11:28:47;;;;;;;17.92;5.25;;;;;;;;;;5075652;27;123928;-73
2023/05/28 11:31:13;;;;;;;15.10;4.47;;;;;;;;;;5075324;27;91791;-73
2023/05/28 11:33:40;;;;;;;13.65;4.93;;;;;;;;;;5070599;27;92404;-75
2023/05/28 11:36:06;;;;;;;21.88;5.43;;;;;;;;;;5055401;27;93872;-73
2023/05/28 11:38:33;;;;;;;16.73;5.60;;;;;;;;;;5055494;27;94905;-73
2023/05/28 11:41:01;;;;;;;12.77;4.85;;;;;;;;;;5040106;27;92489;-74
2023/05/28 11:43:28;;;;;;;15.65;4.93;;;;;;;;;;5052342;27;92431;-74
2023/05/28 11:45:56;;;;;;;18.10;5.10;;;;;;;;;;5065159;27;93322;-74
2023/05/28 11:48:23;;;;;;;17.08;5.40;;;;;;;;;;5053827;27;93609;-73
2023/05/28 11:50:55;;;;;;;22.00;5.50;;;;;;;;;;5054187;27;92463;-73
2023/05/28 11:53:21;;;;;;;18.42;4.40;;;;;;;;;;5054704;27;93575;-73
2023/05/28 11:55:48;;;;;;;20.30;5.45;;;;;;;;;;5051944;27;92681;-74
2023/05/28 11:58:15;;;;;;;25.25;5.80;;;;;;;;;;5057239;27;92435;-74
2023/05/28 12:00:41;;;;;;;19.90;6.07;;;;;;;;;;5068549;27;93432;-74
2023/05/28 12:03:10;;;;;;;19.77;5.40;;;;;;;;;;5051659;27;94865;-73
2023/05/28 12:05:38;;;;;;;14.60;4.85;;;;;;;;;;5057873;27;95556;-74
2023/05/28 12:08:04;;;;;;;19.38;5.22;;;;;;;;;;5072976;27;93764;-73
2023/05/28 12:10:31;;;;;;;15.35;4.72;;;;;;;;;;5074584;27;92877;-74
2023/05/28 12:12:57;;;;;;;19.55;5.30;;;;;;;;;;5043904;27;93026;-74
2023/05/28 12:15:28;;;;;;;23.77;5.03;;;;;;;;;;5051264;27;93408;-74
2023/05/28 12:18:00;;;;;;;13.73;4.82;;;;;;;;;;5053597;27;92538;-74
2023/05/28 12:20:31;;;;;;;18.63;5.82;;;;;;;;;;5053594;27;93145;-74
2023/05/28 12:23:06;;;;;;;25.88;5.60;;;;;;;;;;5068836;27;92537;-73
2023/05/28 12:25:42;;;;;;;16.63;4.85;;;;;;;;;;5047962;27;93196;-74
2023/05/28 12:28:10;;;;;;;16.10;4.80;;;;;;;;;;5069205;27;97142;-74
2023/05/28 12:30:38;;;;;;;18.83;4.90;;;;;;;;;;5062358;27;92869;-74
2023/05/28 12:33:04;;;;;;;18.67;4.97;;;;;;;;;;5072790;27;93218;-74
2023/05/28 12:35:31;;;;;;;15.63;5.13;;;;;;;;;;5075030;27;93475;-73
2023/05/28 12:37:57;;;;;;;16.80;4.97;;;;;;;;;;5076355;27;92442;-73
2023/05/28 12:40:24;;;;;;;21.08;5.63;;;;;;;;;;5042785;27;92535;-74
2023/05/28 12:42:50;;;;;;;18.38;5.05;;;;;;;;;;5054042;27;92425;-74
2023/05/28 12:45:17;;;;;;;14.57;4.85;;;;;;;;;;5062583;27;93224;-74
2023/05/28 12:47:43;;;;;;;14.90;4.90;;;;;;;;;;5057090;27;94059;-73
2023/05/28 12:50:09;;;;;;;14.90;5.20;;;;;;;;;;5050611;27;92552;-74
2023/05/28 12:52:36;;;;;;;15.02;5.78;;;;;;;;;;5042344;27;94898;-73
2023/05/28 12:55:03;;;;;;;14.40;4.90;;;;;;;;;;5076576;27;93486;-73
2023/05/28 12:57:40;;;;;;;15.27;4.60;;;;;;;;;;5073119;27;92547;-73
2023/05/28 13:00:10;;;;;;;19.52;5.35;;;;;;;;;;5063110;27;93644;-73
2023/05/28 13:02:36;;;;;;;;;;;;;;;;;;5053825;27;93422;-73
2023/05/28 13:05:03;;;;;;;17.60;5.00;;;;;;;;;;5056431;27;117386;-73
2023/05/28 13:07:29;;;;;;;17.35;5.22;;;;;;;;;;5065791;27;94082;-73
2023/05/28 13:09:56;;;;;;;16.17;5.35;;;;;;;;;;5063549;27;91678;-73
2023/05/28 13:12:22;;;;;;;15.13;5.00;;;;;;;;;;5056273;27;92690;-73
2023/05/28 13:14:48;;;;;;;12.98;5.30;;;;;;;;;;5055454;27;93433;-73
2023/05/28 13:17:15;;;;;;;16.20;4.90;;;;;;;;;;5056013;27;94862;-73
2023/05/28 13:19:41;;;;;;;15.15;4.70;;;;;;;;;;5070461;27;95775;-73
2023/05/28 13:22:10;;;;;;;16.92;4.88;;;;;;;;;;5064126;27;93429;-73
2023/05/28 13:24:38;;;;;;;18.80;5.55;;;;;;;;;;5059927;27;92545;-73
2023/05/28 13:27:13;;;;;;;15.98;5.22;;;;;;;;;;5075040;27;93411;-73
2023/05/28 13:29:40;;;;;;;16.02;4.57;;;;;;;;;;5049011;27;92525;-72
2023/05/28 13:32:06;;;;;;;15.23;5.93;;;;;;;;;;5037901;27;95590;-73
2023/05/28 13:34:33;;;;;;;13.63;5.40;;;;;;;;;;5059349;27;91896;-72
2023/05/28 13:36:59;;;;;;;14.90;5.00;;;;;;;;;;5055058;27;92653;-72
2023/05/28 13:39:26;;;;;;;16.13;5.07;;;;;;;;;;5057742;27;94679;-73
2023/05/28 13:41:52;;;;;;;16.25;5.25;;;;;;;;;;5033129;27;95875;-72
2023/05/28 13:44:19;;;;;;;15.07;5.00;;;;;;;;;;5045741;27;93160;-73
2023/05/28 13:46:46;;;;;;;17.33;5.35;;;;;;;;;;5053872;27;94504;-73
2023/05/28 13:49:12;;;;;;;14.13;5.20;;;;;;;;;;5064003;27;93471;-72
2023/05/28 13:51:41;;;;;;;17.63;4.72;;;;;;;;;;5047681;27;93471;-73
2023/05/28 13:54:08;;;;;;;19.30;5.38;;;;;;;;;;5054066;27;93389;-74
2023/05/28 13:56:34;;;;;;;15.00;4.43;;;;;;;;;;5057109;27;93519;-72
2023/05/28 13:59:00;;;;;;;23.42;5.60;;;;;;;;;;5047132;27;93288;-72
2023/05/28 14:01:27;;;;;;;11.30;5.03;;;;;;;;;;5055672;27;93763;-72
2023/05/28 14:03:53;;;;;;;11.15;4.68;;;;;;;;;;5063637;27;93261;-73
2023/05/28 14:06:20;;;;;;;14.05;5.28;;;;;;;;;;5054579;27;94791;-73
2023/05/28 14:08:48;;;;;;;17.13;5.32;;;;;;;;;;5070493;27;93598;-73
2023/05/28 14:11:14;;;;;;;14.35;4.70;;;;;;;;;;5074596;27;93509;-73
2023/05/28 14:13:41;;;;;;;11.90;5.07;;;;;;;;;;5061493;27;93845;-73
2023/05/28 14:16:07;;;;;;;27.73;6.05;;;;;;;;;;5056296;27;92571;-73
2023/05/28 14:18:33;;;;;;;14.55;5.75;;;;;;;;;;5055484;27;93361;-72
2023/05/28 14:21:00;;;;;;;20.42;5.22;;;;;;;;;;5055368;27;93810;-73
2023/05/28 14:23:26;;;;;;;14.02;4.88;;;;;;;;;;5056766;27;91745;-72
2023/05/28 14:25:53;;;;;;;12.27;4.95;;;;;;;;;;5066184;27;92434;-73
2023/05/28 14:28:20;;;;;;;14.43;4.97;;;;;;;;;;5062578;27;93409;-72
2023/05/28 14:30:47;;;;;;;13.98;4.63;;;;;;;;;;5056822;27;95200;-72